Time;durP1;ratioP1;P1;durP2;ratioP2;P2;SDS_P1;SDS_P2;PMS_P1;PMS_P2;Temp;Humidity;BMP_temperature;BMP_pressure;BME280_temperature;BME280_humidity;BME280_pressure;Samples;Min_cycle;Max_cycle;Signal;HPM_P1;HPM_P2
2022/06/09 00:00:40;;;;;;;28.45;14.50;;;;;;;;;;4977327;28;20050;-58
2022/06/09 00:03:22;;;;;;;25.65;14.50;;;;;;;;;;4978113;28;20509;-59
2022/06/09 00:05:48;;;;;;;31.33;15.68;;;;;;;;;;4976903;28;20545;-58
2022/06/09 00:08:22;;;;;;;34.08;16.17;;;;;;;;;;4976423;28;20074;-58
2022/06/09 00:10:52;;;;;;;28.50;15.88;;;;;;;;;;4976467;28;20073;-59
2022/06/09 00:13:18;;;;;;;29.63;15.77;;;;;;;;;;4976958;28;20062;-63
2022/06/09 00:15:51;;;;;;;33.78;16.35;;;;;;;;;;4979636;28;20074;-51
2022/06/09 00:18:18;;;;;;;26.98;15.75;;;;;;;;;;4976418;28;20493;-48
2022/06/09 00:20:44;;;;;;;32.97;16.15;;;;;;;;;;4979228;28;20101;-50
2022/06/09 00:23:17;;;;;;;26.73;15.80;;;;;;;;;;4976865;28;20132;-45
2022/06/09 00:25:44;;;;;;;26.55;16.15;;;;;;;;;;4976687;28;20085;-50
2022/06/09 00:28:11;;;;;;;29.27;16.08;;;;;;;;;;4975986;28;20161;-55
2022/06/09 00:30:46;;;;;;;29.67;15.85;;;;;;;;;;4977172;28;20414;-59
2022/06/09 00:33:13;;;;;;;35.08;16.23;;;;;;;;;;4977506;28;20074;-50
2022/06/09 00:35:40;;;;;;;32.15;16.52;;;;;;;;;;4974665;28;20137;-57
2022/06/09 00:38:14;;;;;;;31.88;17.42;;;;;;;;;;4976926;28;20055;-56
2022/06/09 00:40:47;;;;;;;37.22;17.42;;;;;;;;;;4979012;28;20050;-57
2022/06/09 00:43:20;;;;;;;31.38;17.15;;;;;;;;;;4974407;28;20138;-58
2022/06/09 00:45:51;;;;;;;29.55;15.60;;;;;;;;;;4977474;28;20441;-58
2022/06/09 00:48:40;;;;;;;40.30;18.08;;;;;;;;;;4979786;28;20059;-58
2022/06/09 00:51:28;;;;;;;29.55;16.77;;;;;;;;;;4980837;28;20062;-63
2022/06/09 00:53:57;;;;;;;45.00;19.67;;;;;;;;;;4977481;28;20106;-70
2022/06/09 00:56:31;;;;;;;46.85;22.60;;;;;;;;;;4976276;28;20505;-71
2022/06/09 00:58:57;;;;;;;56.22;23.83;;;;;;;;;;4976874;28;20062;-70
2022/06/09 01:01:24;;;;;;;67.15;24.98;;;;;;;;;;4980328;28;20050;-70
2022/06/09 01:04:00;;;;;;;33.92;18.77;;;;;;;;;;4977562;28;20057;-70
2022/06/09 01:06:29;;;;;;;44.33;20.05;;;;;;;;;;4975772;28;20066;-71
2022/06/09 01:09:04;;;;;;;24.98;14.07;;;;;;;;;;4980563;28;20081;-45
2022/06/09 01:11:38;;;;;;;34.63;16.70;;;;;;;;;;4978467;28;20470;-48
2022/06/09 01:14:06;;;;;;;26.27;14.80;;;;;;;;;;4978886;28;20074;-51
2022/06/09 01:16:32;;;;;;;;;;;;;;;;;;4975176;28;20116;-53
2022/06/09 01:19:11;;;;;;;27.33;16.20;;;;;;;;;;4977992;28;19925;-50
2022/06/09 01:21:56;;;;;;;29.63;17.08;;;;;;;;;;4979103;28;20089;-54
2022/06/09 01:24:32;;;;;;;34.53;16.30;;;;;;;;;;4980499;28;20081;-52
2022/06/09 01:27:14;;;;;;;33.10;16.55;;;;;;;;;;4979074;28;20078;-55
2022/06/09 01:29:53;;;;;;;40.63;19.50;;;;;;;;;;4979705;28;20055;-49
2022/06/09 01:32:27;;;;;;;36.88;17.80;;;;;;;;;;4980101;28;20430;-62
2022/06/09 01:35:30;;;;;;;33.22;17.20;;;;;;;;;;4980224;28;20074;-63
2022/06/09 01:37:57;;;;;;;38.58;18.23;;;;;;;;;;4952061;28;20811;-62
2022/06/09 01:40:44;;;;;;;32.22;18.35;;;;;;;;;;4981043;28;20078;-62
2022/06/09 01:43:17;;;;;;;33.42;17.92;;;;;;;;;;4981429;28;20093;-62
2022/06/09 01:46:02;;;;;;;33.72;16.92;;;;;;;;;;4981710;28;20053;-63
2022/06/09 01:48:29;;;;;;;;;;;;;;;;;;4980900;28;20070;-56
2022/06/09 01:51:11;;;;;;;36.40;18.00;;;;;;;;;;4984992;28;19925;-62
2022/06/09 01:53:41;;;;;;;31.00;16.95;;;;;;;;;;4980007;28;20074;-62
2022/06/09 01:56:18;;;;;;;33.35;18.75;;;;;;;;;;4980745;28;20074;-63
2022/06/09 01:58:47;;;;;;;30.52;18.10;;;;;;;;;;4965193;28;20912;-63
2022/06/09 02:01:15;;;;;;;31.30;17.30;;;;;;;;;;4979449;28;20137;-63
2022/06/09 02:03:50;;;;;;;36.25;19.23;;;;;;;;;;4980950;28;20498;-62
2022/06/09 02:06:17;;;;;;;38.35;19.15;;;;;;;;;;4981159;28;20593;-50
2022/06/09 02:08:43;;;;;;;33.58;18.38;;;;;;;;;;4978906;28;20066;-48
2022/06/09 02:11:16;;;;;;;32.78;16.73;;;;;;;;;;4979363;28;20046;-51
2022/06/09 02:13:45;;;;;;;36.40;17.40;;;;;;;;;;4977645;28;20187;-47
2022/06/09 02:16:14;;;;;;;32.53;18.20;;;;;;;;;;4978554;28;20101;-52
2022/06/09 02:18:49;;;;;;;33.15;17.88;;;;;;;;;;4979315;28;20047;-52
2022/06/09 02:21:20;;;;;;;28.40;16.77;;;;;;;;;;4978393;28;20399;-50
2022/06/09 02:23:50;;;;;;;33.45;17.08;;;;;;;;;;4980137;28;20058;-48
2022/06/09 02:26:23;;;;;;;36.90;18.02;;;;;;;;;;4981707;28;20065;-63
2022/06/09 02:28:50;;;;;;;44.30;20.17;;;;;;;;;;4980874;28;20478;-73
2022/06/09 02:31:18;;;;;;;41.10;19.77;;;;;;;;;;4979526;28;20057;-72
2022/06/09 02:33:52;;;;;;;35.88;19.30;;;;;;;;;;4979774;28;20050;-73
2022/06/09 02:36:19;;;;;;;32.20;17.92;;;;;;;;;;4978347;28;20085;-73
2022/06/09 02:38:45;;;;;;;37.92;19.40;;;;;;;;;;4978163;28;20485;-73
2022/06/09 02:41:25;;;;;;;37.88;18.90;;;;;;;;;;4977790;28;20059;-73
2022/06/09 02:43:51;;;;;;;37.40;20.90;;;;;;;;;;4979496;28;20116;-46
2022/06/09 02:46:18;;;;;;;36.15;19.50;;;;;;;;;;4977266;28;20058;-45
2022/06/09 02:48:53;;;;;;;40.33;19.85;;;;;;;;;;4978719;28;20061;-48
2022/06/09 02:51:27;;;;;;;44.88;20.58;;;;;;;;;;4978698;28;20503;-52
2022/06/09 02:54:01;;;;;;;52.42;21.35;;;;;;;;;;4979785;28;20121;-54
2022/06/09 02:56:28;;;;;;;43.53;21.67;;;;;;;;;;4980531;28;20113;-49
2022/06/09 02:58:56;;;;;;;51.40;23.10;;;;;;;;;;4978257;28;20054;-49
2022/06/09 03:01:30;;;;;;;50.13;22.60;;;;;;;;;;4980330;28;20451;-51
2022/06/09 03:03:57;;;;;;;49.77;22.83;;;;;;;;;;4978388;28;20054;-59
2022/06/09 03:06:23;;;;;;;48.78;21.42;;;;;;;;;;4981251;28;20065;-63
2022/06/09 03:08:58;;;;;;;60.17;23.60;;;;;;;;;;4977363;28;20058;-72
2022/06/09 03:11:24;;;;;;;;;;;;;;;;;;4984500;28;20054;-72
2022/06/09 03:13:50;;;;;;;46.35;22.65;;;;;;;;;;4980351;28;20429;-73
2022/06/09 03:16:23;;;;;;;48.60;22.45;;;;;;;;;;4975856;28;20129;-72
2022/06/09 03:18:50;;;;;;;51.05;23.17;;;;;;;;;;4980737;28;20094;-72
2022/06/09 03:21:16;;;;;;;49.63;23.75;;;;;;;;;;4978424;28;20540;-71
2022/06/09 03:23:51;;;;;;;52.05;23.10;;;;;;;;;;4979462;28;20474;-53
2022/06/09 03:26:18;;;;;;;61.45;25.80;;;;;;;;;;4977552;28;20066;-63
2022/06/09 03:28:44;;;;;;;61.42;26.40;;;;;;;;;;4973371;28;20101;-64
2022/06/09 03:31:24;;;;;;;58.03;25.10;;;;;;;;;;4973681;28;20058;-63
2022/06/09 03:33:50;;;;;;;50.92;23.50;;;;;;;;;;4977207;28;20105;-63
2022/06/09 03:36:23;;;;;;;58.70;23.80;;;;;;;;;;4975682;28;20098;-63
2022/06/09 03:38:57;;;;;;;65.05;24.38;;;;;;;;;;4979544;28;20085;-62
2022/06/09 03:41:30;;;;;;;56.00;24.95;;;;;;;;;;4979301;28;20056;-59
2022/06/09 03:44:04;;;;;;;57.00;25.55;;;;;;;;;;4979605;28;20090;-72
2022/06/09 03:46:31;;;;;;;57.13;25.83;;;;;;;;;;4978565;28;20066;-63
2022/06/09 03:48:57;;;;;;;63.33;26.20;;;;;;;;;;4976517;28;20054;-63
2022/06/09 03:51:31;;;;;;;70.75;26.60;;;;;;;;;;4976929;28;20138;-63
2022/06/09 03:53:57;;;;;;;66.15;25.33;;;;;;;;;;4978830;28;20078;-63
2022/06/09 03:56:23;;;;;;;68.68;26.17;;;;;;;;;;4978986;28;20046;-63
2022/06/09 03:58:56;;;;;;;61.95;27.30;;;;;;;;;;4978758;28;20518;-63
2022/06/09 04:01:23;;;;;;;55.67;26.15;;;;;;;;;;4979431;28;20086;-73
2022/06/09 04:03:49;;;;;;;49.72;22.27;;;;;;;;;;4976163;28;20051;-59
2022/06/09 04:06:23;;;;;;;74.57;26.98;;;;;;;;;;4976733;28;20494;-59
2022/06/09 04:08:50;;;;;;;68.60;26.40;;;;;;;;;;4976854;28;20774;-60
2022/06/09 04:11:18;;;;;;;62.40;25.33;;;;;;;;;;4979010;28;20486;-59
2022/06/09 04:13:52;;;;;;;62.50;26.20;;;;;;;;;;4978897;28;20058;-60
2022/06/09 04:16:26;;;;;;;54.33;22.30;;;;;;;;;;4976055;28;20050;-59
2022/06/09 04:19:01;;;;;;;58.38;26.15;;;;;;;;;;4977356;28;20050;-72
2022/06/09 04:21:28;;;;;;;38.10;18.10;;;;;;;;;;4980017;28;20522;-73
2022/06/09 04:23:54;;;;;;;54.42;24.35;;;;;;;;;;4976500;28;20117;-52
2022/06/09 04:26:30;;;;;;;63.10;26.33;;;;;;;;;;4978939;28;20074;-50
2022/06/09 04:28:56;;;;;;;61.67;24.90;;;;;;;;;;4975342;28;20070;-47
2022/06/09 04:31:23;;;;;;;67.15;27.27;;;;;;;;;;4974865;28;20501;-47
2022/06/09 04:33:55;;;;;;;38.40;19.55;;;;;;;;;;4972805;28;20064;-49
2022/06/09 04:36:22;;;;;;;51.08;24.17;;;;;;;;;;4976219;28;20082;-48
2022/06/09 04:38:48;;;;;;;58.42;26.08;;;;;;;;;;4981267;28;20101;-63
2022/06/09 04:41:35;;;;;;;43.17;20.63;;;;;;;;;;4975473;28;20532;-48
2022/06/09 04:44:08;;;;;;;44.53;20.75;;;;;;;;;;4976004;28;20081;-63
2022/06/09 04:46:42;;;;;;;57.03;23.83;;;;;;;;;;4972262;28;20144;-64
2022/06/09 04:49:09;;;;;;;42.42;21.77;;;;;;;;;;4979942;28;20054;-63
2022/06/09 04:51:35;;;;;;;41.20;21.13;;;;;;;;;;4976772;28;20105;-61
2022/06/09 04:54:08;;;;;;;31.77;19.77;;;;;;;;;;4980402;28;20078;-64
2022/06/09 04:56:36;;;;;;;35.03;18.63;;;;;;;;;;4979770;28;20181;-63
2022/06/09 04:59:03;;;;;;;32.72;17.02;;;;;;;;;;4980238;28;20085;-68
2022/06/09 05:01:38;;;;;;;36.30;17.92;;;;;;;;;;4980597;28;20054;-56
2022/06/09 05:04:04;;;;;;;31.48;17.73;;;;;;;;;;4978770;28;20057;-56
2022/06/09 05:06:31;;;;;;;25.83;16.23;;;;;;;;;;4985265;28;20050;-55
2022/06/09 05:09:06;;;;;;;26.35;16.92;;;;;;;;;;4977869;28;20081;-55
2022/06/09 05:11:32;;;;;;;30.08;16.83;;;;;;;;;;4978212;28;20088;-57
2022/06/09 05:13:58;;;;;;;27.75;15.20;;;;;;;;;;4981002;28;20078;-56
2022/06/09 05:16:31;;;;;;;24.10;15.48;;;;;;;;;;4983409;28;20086;-59
2022/06/09 05:18:58;;;;;;;22.10;14.57;;;;;;;;;;4979487;28;20046;-47
2022/06/09 05:21:32;;;;;;;22.30;15.10;;;;;;;;;;4982460;28;20082;-51
2022/06/09 05:24:06;;;;;;;22.80;14.63;;;;;;;;;;4980040;28;20089;-52
2022/06/09 05:26:33;;;;;;;17.80;14.32;;;;;;;;;;4980077;28;20093;-50
2022/06/09 05:28:59;;;;;;;19.98;14.48;;;;;;;;;;4978019;28;20422;-51
2022/06/09 05:31:32;;;;;;;20.10;14.18;;;;;;;;;;4979436;28;20137;-50
2022/06/09 05:33:59;;;;;;;24.90;13.77;;;;;;;;;;4980147;28;20074;-48
2022/06/09 05:36:25;;;;;;;21.42;13.70;;;;;;;;;;4983153;28;20062;-51
2022/06/09 05:44:51;;;;;;;15.90;8.98;;;;;;;;;;4958536;28;20059;-62
2022/06/09 05:47:20;;;;;;;15.07;10.20;;;;;;;;;;4961477;28;20153;-63
2022/06/09 05:49:54;;;;;;;18.83;11.55;;;;;;;;;;4959965;28;20482;-63
2022/06/09 05:52:23;;;;;;;17.20;10.47;;;;;;;;;;4959548;28;20161;-63
2022/06/09 05:54:49;;;;;;;16.02;9.75;;;;;;;;;;4959862;28;20090;-52
2022/06/09 05:57:23;;;;;;;15.13;8.57;;;;;;;;;;4959820;28;20078;-52
2022/06/09 05:59:50;;;;;;;13.13;8.70;;;;;;;;;;4960445;28;20055;-46
2022/06/09 06:02:17;;;;;;;12.68;7.90;;;;;;;;;;4961243;28;20628;-45
2022/06/09 06:04:51;;;;;;;11.43;7.78;;;;;;;;;;4960339;28;20145;-47
2022/06/09 06:07:17;;;;;;;11.90;7.13;;;;;;;;;;4943158;28;20554;-47
2022/06/09 06:09:44;;;;;;;10.03;7.17;;;;;;;;;;4961540;28;20106;-49
2022/06/09 06:12:17;;;;;;;13.90;7.38;;;;;;;;;;4962804;28;20086;-47
2022/06/09 06:14:43;;;;;;;12.80;7.63;;;;;;;;;;4962759;28;20046;-58
2022/06/09 06:17:09;;;;;;;10.57;6.43;;;;;;;;;;4962933;28;20101;-71
2022/06/09 06:19:43;;;;;;;11.65;5.85;;;;;;;;;;4960329;28;20062;-72
2022/06/09 06:22:09;;;;;;;9.90;6.20;;;;;;;;;;4959531;28;20110;-71
2022/06/09 06:24:36;;;;;;;10.93;5.72;;;;;;;;;;4961604;28;20066;-71
2022/06/09 06:27:09;;;;;;;8.40;6.00;;;;;;;;;;4959231;28;20087;-71
2022/06/09 06:29:56;;;;;;;11.63;5.00;;;;;;;;;;4958160;28;20589;-71
2022/06/09 06:32:30;;;;;;;15.88;5.40;;;;;;;;;;4962776;28;20079;-58
2022/06/09 06:34:56;;;;;;;9.43;5.05;;;;;;;;;;4958109;28;20169;-59
2022/06/09 06:37:23;;;;;;;8.55;5.30;;;;;;;;;;4959327;28;20051;-63
2022/06/09 06:40:03;;;;;;;8.70;5.53;;;;;;;;;;4962332;28;20089;-62
2022/06/09 06:42:36;;;;;;;12.88;5.78;;;;;;;;;;4978327;28;20050;-63
2022/06/09 06:45:10;;;;;;;8.55;5.10;;;;;;;;;;4978189;28;20137;-63
2022/06/09 06:47:38;;;;;;;14.38;5.35;;;;;;;;;;4980175;28;20600;-62
2022/06/09 06:50:07;;;;;;;10.27;4.55;;;;;;;;;;4980299;28;20062;-63
2022/06/09 06:52:41;;;;;;;8.90;4.72;;;;;;;;;;4979001;28;20088;-60
2022/06/09 06:55:10;;;;;;;9.38;4.70;;;;;;;;;;4977066;28;20055;-60
2022/06/09 06:57:36;;;;;;;7.82;4.88;;;;;;;;;;4979242;28;20473;-59
2022/06/09 07:00:11;;;;;;;9.50;4.72;;;;;;;;;;4978111;28;20078;-61
2022/06/09 07:02:37;;;;;;;6.93;4.22;;;;;;;;;;4980780;28;20125;-61
2022/06/09 07:05:24;;;;;;;8.27;5.00;;;;;;;;;;4972742;28;20054;-60
2022/06/09 07:07:57;;;;;;;6.95;4.45;;;;;;;;;;4978981;28;20514;-59
2022/06/09 07:10:24;;;;;;;7.72;4.55;;;;;;;;;;4975433;28;20117;-61
2022/06/09 07:12:51;;;;;;;10.20;4.40;;;;;;;;;;4981515;28;20054;-59
2022/06/09 07:15:25;;;;;;;8.48;4.50;;;;;;;;;;4978198;28;20136;-51
2022/06/09 07:17:51;;;;;;;15.80;5.05;;;;;;;;;;4977863;28;20078;-49
2022/06/09 07:20:18;;;;;;;15.87;5.00;;;;;;;;;;4976723;28;20363;-48
2022/06/09 07:22:52;;;;;;;11.27;4.53;;;;;;;;;;4981434;28;20354;-47
2022/06/09 07:25:20;;;;;;;9.45;4.82;;;;;;;;;;4977946;28;20078;-50
2022/06/09 07:27:47;;;;;;;6.65;4.53;;;;;;;;;;4976869;28;20553;-55
2022/06/09 07:30:21;;;;;;;8.13;5.30;;;;;;;;;;4978613;28;20054;-54
2022/06/09 07:32:48;;;;;;;9.30;4.93;;;;;;;;;;4978755;28;20491;-64
2022/06/09 07:35:16;;;;;;;8.02;4.68;;;;;;;;;;4978271;28;20466;-52
2022/06/09 07:37:49;;;;;;;8.18;4.65;;;;;;;;;;4978368;28;20078;-49
2022/06/09 07:40:23;;;;;;;8.15;4.03;;;;;;;;;;4979333;28;20101;-48
2022/06/09 07:43:03;;;;;;;9.18;4.68;;;;;;;;;;4978059;28;20502;-47
2022/06/09 07:45:31;;;;;;;7.93;4.57;;;;;;;;;;4980917;28;20054;-48
2022/06/09 07:48:05;;;;;;;9.07;5.07;;;;;;;;;;4977386;28;20557;-50
2022/06/09 07:50:35;;;;;;;8.52;4.65;;;;;;;;;;4977531;28;20506;-53
2022/06/09 07:53:02;;;;;;;6.25;4.53;;;;;;;;;;4981897;28;20074;-63
2022/06/09 07:55:36;;;;;;;7.45;4.65;;;;;;;;;;4977931;28;20441;-63
2022/06/09 07:58:04;;;;;;;7.27;4.73;;;;;;;;;;4979196;28;20054;-64
2022/06/09 08:00:32;;;;;;;7.68;4.80;;;;;;;;;;4978957;28;20051;-64
2022/06/09 08:03:04;;;;;;;7.18;4.32;;;;;;;;;;4983431;28;20069;-63
2022/06/09 08:05:32;;;;;;;5.88;4.47;;;;;;;;;;4978371;28;20051;-64
2022/06/09 08:07:59;;;;;;;;;;;;;;;;;;4976219;28;20058;-54
2022/06/09 08:10:33;;;;;;;6.97;4.60;;;;;;;;;;4976493;28;19930;-61
2022/06/09 08:13:01;;;;;;;7.40;4.82;;;;;;;;;;4981146;28;20054;-49
2022/06/09 08:15:32;;;;;;;6.53;4.30;;;;;;;;;;4977921;28;20145;-48
2022/06/09 08:18:05;;;;;;;7.80;4.30;;;;;;;;;;4981116;28;20078;-51
2022/06/09 08:20:33;;;;;;;7.30;4.50;;;;;;;;;;4978355;28;20597;-50
2022/06/09 08:23:18;;;;;;;11.15;5.00;;;;;;;;;;4978338;28;20405;-51
2022/06/09 08:25:56;;;;;;;11.50;5.18;;;;;;;;;;4975308;28;20058;-49
2022/06/09 08:28:22;;;;;;;5.85;4.70;;;;;;;;;;4977891;28;20501;-67
2022/06/09 08:30:52;;;;;;;10.63;4.87;;;;;;;;;;4979736;28;20074;-52
2022/06/09 08:33:26;;;;;;;7.60;4.60;;;;;;;;;;4982381;28;20380;-48
2022/06/09 08:35:54;;;;;;;5.75;4.28;;;;;;;;;;4980357;28;20219;-47
2022/06/09 08:38:21;;;;;;;11.82;4.85;;;;;;;;;;4979595;28;20058;-48
2022/06/09 08:41:01;;;;;;;6.85;4.53;;;;;;;;;;4965071;28;20070;-48
2022/06/09 08:43:34;;;;;;;7.32;4.05;;;;;;;;;;4985133;28;20050;-47
2022/06/09 08:46:13;;;;;;;8.15;4.72;;;;;;;;;;4978558;28;20055;-49
2022/06/09 08:48:43;;;;;;;5.65;4.45;;;;;;;;;;4982164;28;20161;-59
2022/06/09 08:51:23;;;;;;;10.63;4.57;;;;;;;;;;4983098;28;20050;-48
2022/06/09 08:53:53;;;;;;;9.73;4.50;;;;;;;;;;4984795;28;20054;-49
2022/06/09 08:56:38;;;;;;;9.07;4.78;;;;;;;;;;4980152;28;20438;-50
2022/06/09 08:59:19;;;;;;;5.22;4.25;;;;;;;;;;4978182;28;20082;-51
2022/06/09 09:01:59;;;;;;;5.38;4.22;;;;;;;;;;4981144;28;20384;-48
2022/06/09 09:04:25;;;;;;;6.90;4.40;;;;;;;;;;4980671;28;20061;-48
2022/06/09 09:06:52;;;;;;;7.38;4.47;;;;;;;;;;4982131;28;20078;-51
2022/06/09 09:09:28;;;;;;;6.95;4.43;;;;;;;;;;4982481;28;20511;-64
2022/06/09 09:11:55;;;;;;;6.65;4.80;;;;;;;;;;4981047;28;20589;-65
2022/06/09 09:14:26;;;;;;;5.70;3.97;;;;;;;;;;4981351;28;20082;-64
2022/06/09 09:16:59;;;;;;;;;;;;;;;;;;4981966;28;20093;-64
2022/06/09 09:19:51;;;;;;;6.30;4.25;;;;;;;;;;4983543;28;19926;-64
2022/06/09 09:22:37;;;;;;;7.45;4.55;;;;;;;;;;4950832;28;20073;-64
2022/06/09 09:25:09;;;;;;;7.30;4.78;;;;;;;;;;4981208;28;20042;-50
2022/06/09 09:28:04;;;;;;;7.10;3.67;;;;;;;;;;4981040;28;20054;-64
2022/06/09 09:30:36;;;;;;;5.85;4.38;;;;;;;;;;4984340;28;20050;-65
2022/06/09 09:33:14;;;;;;;6.55;3.70;;;;;;;;;;4982730;28;20466;-64
2022/06/09 09:35:41;;;;;;;5.97;4.32;;;;;;;;;;4980731;28;20058;-64
2022/06/09 09:38:08;;;;;;;7.32;3.90;;;;;;;;;;4980633;28;20510;-64
2022/06/09 09:40:56;;;;;;;6.72;4.03;;;;;;;;;;4977627;28;20400;-64
2022/06/09 09:43:34;;;;;;;7.70;4.25;;;;;;;;;;4982238;28;20062;-65
2022/06/09 09:46:18;;;;;;;10.88;4.35;;;;;;;;;;4981109;28;20063;-61
2022/06/09 09:48:44;;;;;;;9.13;4.30;;;;;;;;;;4981280;28;20525;-64
2022/06/09 09:51:30;;;;;;;7.75;4.25;;;;;;;;;;4977791;28;20541;-64
2022/06/09 09:53:57;;;;;;;8.57;4.18;;;;;;;;;;4979479;28;20694;-63
2022/06/09 09:56:31;;;;;;;8.10;4.45;;;;;;;;;;4979903;28;20108;-65
2022/06/09 09:58:59;;;;;;;8.20;4.28;;;;;;;;;;4980911;28;20090;-65
2022/06/09 10:10:56;;;;;;;5.63;3.70;;;;;;;;;;4979555;28;20493;-51
2022/06/09 10:13:41;;;;;;;7.60;3.80;;;;;;;;;;4980785;28;20106;-48
2022/06/09 10:16:15;;;;;;;5.28;3.70;;;;;;;;;;4981300;28;20321;-47
2022/06/09 10:19:01;;;;;;;6.60;3.53;;;;;;;;;;4976786;28;20505;-50
2022/06/09 10:21:51;;;;;;;6.90;3.90;;;;;;;;;;4980158;28;20057;-61
2022/06/09 10:24:24;;;;;;;7.10;3.93;;;;;;;;;;4978898;28;20109;-51
2022/06/09 10:27:09;;;;;;;4.97;3.72;;;;;;;;;;4978863;28;20532;-57
2022/06/09 10:29:44;;;;;;;5.72;3.92;;;;;;;;;;4980589;28;20089;-56
2022/06/09 10:32:20;;;;;;;7.15;3.72;;;;;;;;;;4975020;28;20085;-55
2022/06/09 10:35:06;;;;;;;6.75;3.90;;;;;;;;;;4977499;28;20110;-56
2022/06/09 10:37:45;;;;;;;6.15;4.15;;;;;;;;;;4975899;28;20105;-58
2022/06/09 10:40:24;;;;;;;5.28;3.70;;;;;;;;;;4977837;28;20125;-51
2022/06/09 10:43:18;;;;;;;5.63;3.95;;;;;;;;;;4977683;28;20104;-60
2022/06/09 10:45:58;;;;;;;7.90;3.95;;;;;;;;;;4979385;28;20962;-58
2022/06/09 10:57:34;;;;;;;7.03;4.13;;;;;;;;;;4925325;29;20551;-56
2022/06/09 11:00:11;;;;;;;6.70;3.47;;;;;;;;;;4966475;28;20054;-48
2022/06/09 11:02:38;;;;;;;6.18;3.65;;;;;;;;;;4977048;28;20518;-52
2022/06/09 11:05:05;;;;;;;6.00;3.80;;;;;;;;;;4980110;28;20109;-46
2022/06/09 11:07:37;;;;;;;5.22;3.70;;;;;;;;;;4979541;28;20081;-52
2022/06/09 11:10:10;;;;;;;7.20;4.03;;;;;;;;;;4977766;28;20082;-49
2022/06/09 11:12:55;;;;;;;5.78;4.00;;;;;;;;;;4976959;28;20062;-52
2022/06/09 11:15:42;;;;;;;4.72;3.67;;;;;;;;;;4976720;28;20086;-51
2022/06/09 11:18:08;;;;;;;6.93;4.63;;;;;;;;;;4978163;28;20498;-52
2022/06/09 11:20:58;;;;;;;7.72;3.72;;;;;;;;;;4977791;28;20098;-60
2022/06/09 11:23:34;;;;;;;6.43;4.05;;;;;;;;;;4978388;28;20054;-49
2022/06/09 11:26:12;;;;;;;11.25;3.92;;;;;;;;;;4980092;28;20067;-51
2022/06/09 11:28:58;;;;;;;4.15;3.60;;;;;;;;;;4976749;28;20165;-51
2022/06/09 11:32:04;;;;;;;5.97;3.65;;;;;;;;;;4977666;28;20491;-49
2022/06/09 11:34:48;;;;;;;5.10;3.63;;;;;;;;;;4919643;28;20054;-50
2022/06/09 11:37:30;;;;;;;5.80;3.80;;;;;;;;;;4978444;28;20054;-57
2022/06/09 11:39:59;;;;;;;5.05;4.10;;;;;;;;;;4979294;28;20093;-56
2022/06/09 11:42:42;;;;;;;12.93;4.30;;;;;;;;;;4977421;28;20058;-59
2022/06/09 11:45:22;;;;;;;8.25;4.03;;;;;;;;;;4978253;28;20510;-59
2022/06/09 11:47:56;;;;;;;5.40;3.80;;;;;;;;;;4980824;28;20620;-59
2022/06/09 11:50:44;;;;;;;11.45;3.92;;;;;;;;;;4977282;28;20082;-59
2022/06/09 11:53:26;;;;;;;6.32;3.83;;;;;;;;;;4977167;28;20066;-59
2022/06/09 11:56:12;;;;;;;9.85;4.15;;;;;;;;;;4978601;28;20082;-51
2022/06/09 11:58:47;;;;;;;5.75;3.38;;;;;;;;;;4977106;28;20502;-57
2022/06/09 12:01:22;;;;;;;7.18;3.63;;;;;;;;;;4978673;28;20066;-54
2022/06/09 12:04:05;;;;;;;5.20;3.55;;;;;;;;;;4977446;28;20430;-58
2022/06/09 12:06:50;;;;;;;5.18;3.88;;;;;;;;;;4978673;28;20058;-58
2022/06/09 12:09:44;;;;;;;5.13;3.63;;;;;;;;;;4979535;28;20058;-57
2022/06/09 12:12:30;;;;;;;5.93;3.25;;;;;;;;;;4975969;28;20090;-57
2022/06/09 12:15:26;;;;;;;11.18;3.63;;;;;;;;;;4978263;28;20110;-61
2022/06/09 12:17:58;;;;;;;7.18;3.42;;;;;;;;;;4975856;28;20089;-66
2022/06/09 12:20:38;;;;;;;6.47;3.75;;;;;;;;;;4981128;28;20100;-63
2022/06/09 12:23:23;;;;;;;7.05;3.85;;;;;;;;;;4979042;28;20206;-63
2022/06/09 12:26:09;;;;;;;5.00;3.47;;;;;;;;;;4979657;28;20136;-63
2022/06/09 12:28:44;;;;;;;6.30;3.38;;;;;;;;;;4976459;28;20147;-62
2022/06/09 12:31:26;;;;;;;5.53;3.80;;;;;;;;;;4975770;28;20144;-62
2022/06/09 12:34:11;;;;;;;6.60;3.38;;;;;;;;;;4975454;28;20148;-63
2022/06/09 12:36:49;;;;;;;7.30;3.53;;;;;;;;;;4978274;28;20525;-50
2022/06/09 12:39:16;;;;;;;8.20;3.47;;;;;;;;;;4979090;28;20082;-53
2022/06/09 12:41:43;;;;;;;6.53;3.60;;;;;;;;;;4973545;28;20058;-48
2022/06/09 12:44:29;;;;;;;7.40;3.63;;;;;;;;;;4979682;28;20085;-48
2022/06/09 12:47:12;;;;;;;7.47;3.80;;;;;;;;;;4976577;28;20106;-52
2022/06/09 12:49:47;;;;;;;6.18;3.67;;;;;;;;;;4978643;28;20090;-50
2022/06/09 12:52:38;;;;;;;5.45;3.35;;;;;;;;;;4976066;28;20047;-51
2022/06/09 12:55:20;;;;;;;3.63;3.13;;;;;;;;;;4980042;28;20059;-53
2022/06/09 12:57:48;;;;;;;4.22;3.15;;;;;;;;;;4976949;28;20634;-59
2022/06/09 13:00:26;;;;;;;6.80;3.15;;;;;;;;;;4978861;28;20046;-59
2022/06/09 13:02:53;;;;;;;4.55;3.03;;;;;;;;;;4978194;28;20073;-59
2022/06/09 13:05:22;;;;;;;3.70;2.88;;;;;;;;;;4979421;28;20130;-58
2022/06/09 13:07:58;;;;;;;4.38;2.75;;;;;;;;;;4980269;28;20640;-57
2022/06/09 13:10:26;;;;;;;4.75;2.92;;;;;;;;;;4979337;28;20055;-58
2022/06/09 13:12:56;;;;;;;7.30;2.88;;;;;;;;;;4977456;28;20066;-68
2022/06/09 13:15:37;;;;;;;6.30;3.22;;;;;;;;;;4978287;28;20058;-59
2022/06/09 13:18:22;;;;;;;7.47;3.00;;;;;;;;;;4980745;28;20082;-54
2022/06/09 13:21:06;;;;;;;4.95;2.83;;;;;;;;;;4980671;28;20062;-52
2022/06/09 13:23:33;;;;;;;3.53;2.70;;;;;;;;;;4980427;28;20082;-49
2022/06/09 13:26:11;;;;;;;4.47;2.60;;;;;;;;;;4978476;28;20046;-48
2022/06/09 13:28:38;;;;;;;3.85;2.70;;;;;;;;;;4979034;28;20051;-50
2022/06/09 13:31:24;;;;;;;5.15;2.53;;;;;;;;;;4981552;28;20473;-50
2022/06/09 13:34:04;;;;;;;3.63;2.83;;;;;;;;;;4981586;28;20106;-50
2022/06/09 13:36:34;;;;;;;4.10;2.47;;;;;;;;;;4967456;28;20055;-62
2022/06/09 13:39:26;;;;;;;3.95;2.60;;;;;;;;;;4981449;28;20104;-62
2022/06/09 13:42:02;;;;;;;2.95;2.30;;;;;;;;;;4983240;28;20065;-62
2022/06/09 13:44:50;;;;;;;5.88;2.60;;;;;;;;;;4981812;28;20481;-62
2022/06/09 13:47:20;;;;;;;3.33;2.20;;;;;;;;;;4982511;28;20055;-61
2022/06/09 13:50:14;;;;;;;4.00;2.80;;;;;;;;;;4979058;28;20061;-62
2022/06/09 13:52:52;;;;;;;6.18;2.30;;;;;;;;;;4984592;28;20472;-48
2022/06/09 13:55:26;;;;;;;3.58;2.10;;;;;;;;;;4979447;28;20101;-59
2022/06/09 13:57:54;;;;;;;8.40;2.55;;;;;;;;;;4979062;28;20502;-59
2022/06/09 14:00:22;;;;;;;5.72;2.40;;;;;;;;;;4979802;28;20517;-59
2022/06/09 14:03:02;;;;;;;6.35;2.33;;;;;;;;;;4977099;28;20108;-58
2022/06/09 14:05:31;;;;;;;5.55;2.15;;;;;;;;;;4974931;28;20050;-59
2022/06/09 14:08:04;;;;;;;3.65;2.22;;;;;;;;;;4977149;28;20160;-59
2022/06/09 14:10:37;;;;;;;5.25;2.42;;;;;;;;;;4977963;28;20137;-62
2022/06/09 14:13:11;;;;;;;4.13;2.20;;;;;;;;;;4977694;28;20058;-62
2022/06/09 14:15:45;;;;;;;6.47;2.23;;;;;;;;;;4974325;28;20093;-61
2022/06/09 14:18:21;;;;;;;4.60;2.60;;;;;;;;;;4974421;28;20050;-61
2022/06/09 14:20:47;;;;;;;4.18;2.60;;;;;;;;;;4975735;28;20555;-61
2022/06/09 14:23:18;;;;;;;6.35;2.60;;;;;;;;;;4977811;28;20078;-62
2022/06/09 14:25:57;;;;;;;4.78;2.55;;;;;;;;;;4975788;28;20054;-61
2022/06/09 14:28:24;;;;;;;5.38;2.60;;;;;;;;;;4974058;28;20544;-50
2022/06/09 14:30:50;;;;;;;4.82;2.17;;;;;;;;;;4974661;28;20058;-58
2022/06/09 14:33:24;;;;;;;6.10;2.70;;;;;;;;;;4975584;28;20082;-61
2022/06/09 14:35:51;;;;;;;3.33;2.78;;;;;;;;;;4976018;28;20054;-62
2022/06/09 14:38:18;;;;;;;4.50;3.20;;;;;;;;;;4979783;28;20176;-60
2022/06/09 14:40:52;;;;;;;3.30;2.70;;;;;;;;;;4980421;28;20305;-61
2022/06/09 14:43:25;;;;;;;5.18;2.60;;;;;;;;;;4977247;28;20537;-61
2022/06/09 14:45:59;;;;;;;2.85;2.22;;;;;;;;;;4962917;28;20504;-61
2022/06/09 14:48:29;;;;;;;4.03;2.67;;;;;;;;;;4981051;28;20057;-56
2022/06/09 14:50:56;;;;;;;4.05;2.60;;;;;;;;;;4977733;28;20145;-60
2022/06/09 14:53:29;;;;;;;4.28;2.58;;;;;;;;;;4978677;28;20042;-52
2022/06/09 14:55:55;;;;;;;4.93;2.57;;;;;;;;;;4981925;28;20062;-49
2022/06/09 14:58:24;;;;;;;4.93;2.45;;;;;;;;;;4979162;28;20089;-49
2022/06/09 15:00:58;;;;;;;5.32;2.85;;;;;;;;;;4980132;28;20120;-49
2022/06/09 15:03:25;;;;;;;5.43;2.90;;;;;;;;;;4980947;28;20082;-50
2022/06/09 15:06:00;;;;;;;6.00;3.30;;;;;;;;;;4977720;28;20290;-49
2022/06/09 15:08:33;;;;;;;3.92;2.83;;;;;;;;;;4979713;28;20054;-50
2022/06/09 15:10:59;;;;;;;5.18;2.78;;;;;;;;;;4981030;28;20222;-48
2022/06/09 15:13:26;;;;;;;3.67;2.67;;;;;;;;;;4982236;28;20137;-46
2022/06/09 15:16:01;;;;;;;5.03;2.53;;;;;;;;;;4976489;28;20085;-47
2022/06/09 15:18:37;;;;;;;6.03;3.00;;;;;;;;;;4980356;28;20062;-47
2022/06/09 15:21:10;;;;;;;3.90;2.70;;;;;;;;;;4977867;28;20059;-47
2022/06/09 15:23:36;;;;;;;4.70;2.33;;;;;;;;;;4980661;28;20144;-48
2022/06/09 15:26:04;;;;;;;3.60;2.60;;;;;;;;;;4978250;28;20082;-69
2022/06/09 15:28:37;;;;;;;3.92;2.50;;;;;;;;;;4978535;28;20058;-59
2022/06/09 15:31:03;;;;;;;5.53;2.67;;;;;;;;;;4979722;28;20502;-60
2022/06/09 15:33:30;;;;;;;3.88;2.75;;;;;;;;;;4979443;28;20421;-60